Aérodrome :
LOGIN :

S'inscrire | Disclaimer

   EN    FR    IT 

 










Légende :    VFR   VFR Marginal   IFR   IFR Intensif   IFR Très Intensif
Visi : 
Plafond : 
>= 8 km
>= 3000ft
5 à 8 km
1000 à 3000 ft
1500m à 5 km
500 à 1000 ft
800 à 1500m
200 à 500 ft
< 800m
< 200 ft
Symboles :   Orages  Brouillard  Fortes neiges  Fortes précipitations  Vent > 20 kt
SIGMETs :   Divers  Orages  Givrage  Turbulence  Onde Orograph.  Cendres Volcan.






- Altitude de l'aérodrome : 202 ft
- Code IATA : LGW


EGKK - London Gatwick

DERNIER METAR :
  • 200050Z 22012KT 6000 -RADZ BKN010 09/08 Q1014

METARs EXPIRÉS :
  • 192350Z 22010KT 9999 BKN012 09/08 Q1014
  • 192320Z 22008KT 9999 FEW008 BKN010 09/08 Q1015
  • 192250Z 22009KT 9999 BKN010 09/07 Q1015
  • 192220Z 22012KT 9999 BKN013 09/07 Q1015

TAF TAF EGKK
Valide du 20 à 00h jusqu'au 21 à 06h UTC


192257Z 2000/2106 22013KT 9999 BKN016
TEMPO 2000/2007 22015G25KT
PROB40
TEMPO 2000/2011 7000 -RADZ BKN012
BECMG 2007/2010 21018G28KT
TEMPO 2011/2015 7000 RA BKN012
PROB40
TEMPO 2012/2015 24022G35KT 3000 +RA BKN008
BECMG 2013/2015 27013KT
PROB40
TEMPO 2015/2018 28018G30KT 6000 SHRA BKN014
BECMG 2018/2021 CAVOK



MET'MAP, la Météo Aéronautique d'un coup d'oeil ! - Copyright ORBIFLY Décembre 2007 - Disclaimer

ORBIFLY MET'MAP TEAM :

Programmation & Développement : Alexandra Zaïnal
Sur une idée originale de : Baudouin d'Aumeries
Assistance à la programmation : Marc-Olivier Méhu
Soutien technique & logistique : Manuel Goepfert

Contact : metmap@orbifly.com




SOURCES & CREDITS :

   NOAA